Covington, Oklahoma
Current Conditions -  °F | °C
As of 2:50 PM on Sunday 21 Dec 2014 (Local Time) from KWDG Reporting Station
Haze Haze  
Wind Chill: 40°   Ceiling: 700
Heat Index: 46°   Visibility: 2mi
Dew Point: 45°   Wind: 14mph
Humidity: 93%   Direction: 160°SSE
Pressure: 29.77"   Gusts: NA
Location:  36.31°N, 97.59°W
Report Text: KWDG 212050Z 16012KT 2SM BR OVC007 08/07 A2977
Loading
Personal Weather Stations






























Interactive Weather Map New forecast layout! Learn more

10-Day Weather Forecast

Advertisements
Track Severe Weather on mobile